sensor_id;sensor_type;location;lat;lon;timestamp;temperature;humidity
33077;DHT22;38790;51.964;5.924;2022-12-18T00:01:46;-4.80;99.90
33077;DHT22;38790;51.964;5.924;2022-12-18T00:04:22;-4.80;99.90
33077;DHT22;38790;51.964;5.924;2022-12-18T00:06:49;-4.80;99.90
33077;DHT22;38790;51.964;5.924;2022-12-18T00:09:15;-4.80;99.90
33077;DHT22;38790;51.964;5.924;2022-12-18T00:11:42;-4.80;99.90
33077;DHT22;38790;51.964;5.924;2022-12-18T00:14:09;-4.80;99.90
33077;DHT22;38790;51.964;5.924;2022-12-18T00:16:36;-4.90;99.90
33077;DHT22;38790;51.964;5.924;2022-12-18T00:19:04;-5.00;99.90
33077;DHT22;38790;51.964;5.924;2022-12-18T00:21:31;-5.00;99.90
33077;DHT22;38790;51.964;5.924;2022-12-18T00:24:14;-5.10;99.90
33077;DHT22;38790;51.964;5.924;2022-12-18T00:26:43;-5.20;99.90
33077;DHT22;38790;51.964;5.924;2022-12-18T00:29:12;-5.30;99.90
33077;DHT22;38790;51.964;5.924;2022-12-18T00:31:40;-5.40;99.90
33077;DHT22;38790;51.964;5.924;2022-12-18T00:34:11;-5.50;99.90
33077;DHT22;38790;51.964;5.924;2022-12-18T00:36:39;-5.40;99.90
33077;DHT22;38790;51.964;5.924;2022-12-18T00:39:06;-5.30;99.90
33077;DHT22;38790;51.964;5.924;2022-12-18T00:41:33;-5.30;99.90
33077;DHT22;38790;51.964;5.924;2022-12-18T00:44:18;-5.20;99.90
33077;DHT22;38790;51.964;5.924;2022-12-18T00:46:46;-5.30;99.90
33077;DHT22;38790;51.964;5.924;2022-12-18T00:49:12;-5.30;99.90
33077;DHT22;38790;51.964;5.924;2022-12-18T00:51:39;-5.40;99.90
33077;DHT22;38790;51.964;5.924;2022-12-18T00:54:05;-5.30;99.90
33077;DHT22;38790;51.964;5.924;2022-12-18T00:56:31;-5.30;99.90
33077;DHT22;38790;51.964;5.924;2022-12-18T00:58:58;-5.20;99.90
33077;DHT22;38790;51.964;5.924;2022-12-18T01:01:24;-5.20;99.90
33077;DHT22;38790;51.964;5.924;2022-12-18T01:03:50;-5.30;99.90
33077;DHT22;38790;51.964;5.924;2022-12-18T01:06:16;-5.40;99.90
33077;DHT22;38790;51.964;5.924;2022-12-18T01:08:43;-5.40;99.90
33077;DHT22;38790;51.964;5.924;2022-12-18T01:11:20;-5.60;99.90
33077;DHT22;38790;51.964;5.924;2022-12-18T01:13:49;-5.60;99.90
33077;DHT22;38790;51.964;5.924;2022-12-18T01:16:21;-5.50;99.90
33077;DHT22;38790;51.964;5.924;2022-12-18T01:18:50;-5.50;99.90
33077;DHT22;38790;51.964;5.924;2022-12-18T01:21:16;-5.60;99.90
33077;DHT22;38790;51.964;5.924;2022-12-18T01:23:42;-5.60;99.90
33077;DHT22;38790;51.964;5.924;2022-12-18T01:26:12;-5.70;99.90
33077;DHT22;38790;51.964;5.924;2022-12-18T01:28:39;-5.70;99.90
33077;DHT22;38790;51.964;5.924;2022-12-18T01:31:17;-5.70;99.90
33077;DHT22;38790;51.964;5.924;2022-12-18T01:33:44;-5.80;99.90
33077;DHT22;38790;51.964;5.924;2022-12-18T01:36:21;-5.80;99.90
33077;DHT22;38790;51.964;5.924;2022-12-18T01:38:48;-5.70;99.90
33077;DHT22;38790;51.964;5.924;2022-12-18T01:41:16;-5.70;99.90
33077;DHT22;38790;51.964;5.924;2022-12-18T01:43:57;-5.70;99.90
33077;DHT22;38790;51.964;5.924;2022-12-18T01:46:24;-5.60;99.90
33077;DHT22;38790;51.964;5.924;2022-12-18T01:48:59;-5.60;99.90
33077;DHT22;38790;51.964;5.924;2022-12-18T01:51:29;-5.70;99.90
33077;DHT22;38790;51.964;5.924;2022-12-18T01:53:57;-5.70;99.90
33077;DHT22;38790;51.964;5.924;2022-12-18T01:56:24;-5.80;99.90
33077;DHT22;38790;51.964;5.924;2022-12-18T01:59:01;-5.90;99.90
33077;DHT22;38790;51.964;5.924;2022-12-18T02:01:29;-5.80;99.90
33077;DHT22;38790;51.964;5.924;2022-12-18T02:03:56;-5.80;99.90
33077;DHT22;38790;51.964;5.924;2022-12-18T02:06:41;-5.70;99.90
33077;DHT22;38790;51.964;5.924;2022-12-18T02:09:20;-5.80;99.90
33077;DHT22;38790;51.964;5.924;2022-12-18T02:12:23;-5.80;99.90
33077;DHT22;38790;51.964;5.924;2022-12-18T02:17:41;-5.80;99.90
33077;DHT22;38790;51.964;5.924;2022-12-18T02:28:20;-5.90;99.90
33077;DHT22;38790;51.964;5.924;2022-12-18T02:30:49;-5.90;99.90
33077;DHT22;38790;51.964;5.924;2022-12-18T02:33:17;-5.80;99.90
33077;DHT22;38790;51.964;5.924;2022-12-18T02:35:45;-5.80;99.90
33077;DHT22;38790;51.964;5.924;2022-12-18T02:38:13;-5.80;99.90
33077;DHT22;38790;51.964;5.924;2022-12-18T02:40:42;-5.90;99.90
33077;DHT22;38790;51.964;5.924;2022-12-18T02:43:11;-6.00;99.90
33077;DHT22;38790;51.964;5.924;2022-12-18T02:46:27;-6.00;99.90
33077;DHT22;38790;51.964;5.924;2022-12-18T02:49:01;-6.00;99.90
33077;DHT22;38790;51.964;5.924;2022-12-18T03:00:24;-5.90;99.90
33077;DHT22;38790;51.964;5.924;2022-12-18T03:02:59;-5.90;99.90
33077;DHT22;38790;51.964;5.924;2022-12-18T03:05:31;-5.90;99.90
33077;DHT22;38790;51.964;5.924;2022-12-18T03:08:06;-6.00;99.90
33077;DHT22;38790;51.964;5.924;2022-12-18T03:10:39;-5.90;99.90
33077;DHT22;38790;51.964;5.924;2022-12-18T03:13:13;-6.00;99.90
33077;DHT22;38790;51.964;5.924;2022-12-18T03:15:47;-5.90;99.90
33077;DHT22;38790;51.964;5.924;2022-12-18T03:18:21;-5.90;99.90
33077;DHT22;38790;51.964;5.924;2022-12-18T03:20:52;-6.00;99.90
33077;DHT22;38790;51.964;5.924;2022-12-18T03:23:27;-5.90;99.90
33077;DHT22;38790;51.964;5.924;2022-12-18T03:25:58;-5.90;99.90
33077;DHT22;38790;51.964;5.924;2022-12-18T03:28:28;-6.00;99.90
33077;DHT22;38790;51.964;5.924;2022-12-18T03:30:59;-6.10;99.90
33077;DHT22;38790;51.964;5.924;2022-12-18T03:33:31;-6.10;99.90
33077;DHT22;38790;51.964;5.924;2022-12-18T03:36:00;-6.20;99.90
33077;DHT22;38790;51.964;5.924;2022-12-18T03:38:26;-6.20;99.90
33077;DHT22;38790;51.964;5.924;2022-12-18T03:41:17;-6.20;99.90
33077;DHT22;38790;51.964;5.924;2022-12-18T03:46:28;-6.00;99.90
33077;DHT22;38790;51.964;5.924;2022-12-18T03:49:01;-6.00;99.90
33077;DHT22;38790;51.964;5.924;2022-12-18T03:51:39;-6.00;99.90
33077;DHT22;38790;51.964;5.924;2022-12-18T03:54:09;-6.00;99.90
33077;DHT22;38790;51.964;5.924;2022-12-18T03:56:42;-6.10;99.90
33077;DHT22;38790;51.964;5.924;2022-12-18T03:59:11;-6.10;99.90
33077;DHT22;38790;51.964;5.924;2022-12-18T04:01:42;-6.10;99.90
33077;DHT22;38790;51.964;5.924;2022-12-18T04:04:10;-6.10;99.90
33077;DHT22;38790;51.964;5.924;2022-12-18T04:06:40;-6.20;99.90
33077;DHT22;38790;51.964;5.924;2022-12-18T04:09:08;-6.20;99.90
33077;DHT22;38790;51.964;5.924;2022-12-18T04:11:34;-6.20;99.90
33077;DHT22;38790;51.964;5.924;2022-12-18T04:14:00;-6.20;99.90
33077;DHT22;38790;51.964;5.924;2022-12-18T04:16:27;-6.20;99.90
33077;DHT22;38790;51.964;5.924;2022-12-18T04:18:53;-6.10;99.90
33077;DHT22;38790;51.964;5.924;2022-12-18T04:21:20;-6.10;99.90
33077;DHT22;38790;51.964;5.924;2022-12-18T04:23:46;-6.10;99.90
33077;DHT22;38790;51.964;5.924;2022-12-18T04:26:12;-6.10;99.90
33077;DHT22;38790;51.964;5.924;2022-12-18T04:28:38;-6.10;99.90
33077;DHT22;38790;51.964;5.924;2022-12-18T04:31:04;-6.10;99.90
33077;DHT22;38790;51.964;5.924;2022-12-18T04:33:31;-6.10;99.90
33077;DHT22;38790;51.964;5.924;2022-12-18T04:35:57;-6.10;99.90
33077;DHT22;38790;51.964;5.924;2022-12-18T04:38:23;-6.10;99.90
33077;DHT22;38790;51.964;5.924;2022-12-18T04:40:50;-6.20;99.90
33077;DHT22;38790;51.964;5.924;2022-12-18T04:43:16;-6.20;99.90
33077;DHT22;38790;51.964;5.924;2022-12-18T04:45:42;-6.20;99.90
33077;DHT22;38790;51.964;5.924;2022-12-18T04:48:08;-6.20;99.90
33077;DHT22;38790;51.964;5.924;2022-12-18T04:50:34;-6.20;99.90
33077;DHT22;38790;51.964;5.924;2022-12-18T04:53:01;-6.20;99.90
33077;DHT22;38790;51.964;5.924;2022-12-18T04:55:27;-6.10;99.90
33077;DHT22;38790;51.964;5.924;2022-12-18T04:57:56;-6.10;99.90
33077;DHT22;38790;51.964;5.924;2022-12-18T05:00:23;-6.10;99.90
33077;DHT22;38790;51.964;5.924;2022-12-18T05:02:49;-6.10;99.90
33077;DHT22;38790;51.964;5.924;2022-12-18T05:05:18;-6.10;99.90
33077;DHT22;38790;51.964;5.924;2022-12-18T05:07:44;-6.10;99.90
33077;DHT22;38790;51.964;5.924;2022-12-18T05:10:10;-6.10;99.90
33077;DHT22;38790;51.964;5.924;2022-12-18T05:12:36;-6.00;99.90
33077;DHT22;38790;51.964;5.924;2022-12-18T05:15:30;-6.00;99.90
33077;DHT22;38790;51.964;5.924;2022-12-18T05:18:00;-6.00;99.90
33077;DHT22;38790;51.964;5.924;2022-12-18T05:20:27;-6.00;99.90
33077;DHT22;38790;51.964;5.924;2022-12-18T05:22:54;-6.00;99.90
33077;DHT22;38790;51.964;5.924;2022-12-18T05:25:20;-6.00;99.90
33077;DHT22;38790;51.964;5.924;2022-12-18T05:27:47;-6.00;99.90
33077;DHT22;38790;51.964;5.924;2022-12-18T05:30:15;-6.10;99.90
33077;DHT22;38790;51.964;5.924;2022-12-18T05:32:41;-6.10;99.90
33077;DHT22;38790;51.964;5.924;2022-12-18T05:35:09;-6.20;99.90
33077;DHT22;38790;51.964;5.924;2022-12-18T05:37:35;-6.20;99.90
33077;DHT22;38790;51.964;5.924;2022-12-18T05:40:04;-6.20;99.90
33077;DHT22;38790;51.964;5.924;2022-12-18T05:42:30;-6.30;99.90
33077;DHT22;38790;51.964;5.924;2022-12-18T05:44:56;-6.30;99.90
33077;DHT22;38790;51.964;5.924;2022-12-18T05:47:22;-6.30;99.90
33077;DHT22;38790;51.964;5.924;2022-12-18T05:49:49;-6.30;99.90
33077;DHT22;38790;51.964;5.924;2022-12-18T05:52:15;-6.30;99.90
33077;DHT22;38790;51.964;5.924;2022-12-18T05:54:41;-6.20;99.90
33077;DHT22;38790;51.964;5.924;2022-12-18T05:57:07;-6.20;99.90
33077;DHT22;38790;51.964;5.924;2022-12-18T05:59:33;-6.20;99.90
33077;DHT22;38790;51.964;5.924;2022-12-18T06:01:59;-6.20;99.90
33077;DHT22;38790;51.964;5.924;2022-12-18T06:04:27;-6.20;99.90
33077;DHT22;38790;51.964;5.924;2022-12-18T06:06:55;-6.30;99.90
33077;DHT22;38790;51.964;5.924;2022-12-18T06:09:21;-6.30;99.90
33077;DHT22;38790;51.964;5.924;2022-12-18T06:11:47;-6.40;99.90
33077;DHT22;38790;51.964;5.924;2022-12-18T06:14:14;-6.40;99.90
33077;DHT22;38790;51.964;5.924;2022-12-18T06:16:42;-6.30;99.90
33077;DHT22;38790;51.964;5.924;2022-12-18T06:19:14;-6.20;99.90
33077;DHT22;38790;51.964;5.924;2022-12-18T06:21:41;-6.10;99.90
33077;DHT22;38790;51.964;5.924;2022-12-18T06:24:07;-6.10;99.90
33077;DHT22;38790;51.964;5.924;2022-12-18T06:26:33;-6.10;99.90
33077;DHT22;38790;51.964;5.924;2022-12-18T06:29:00;-6.10;99.90
33077;DHT22;38790;51.964;5.924;2022-12-18T06:31:26;-6.10;99.90
33077;DHT22;38790;51.964;5.924;2022-12-18T06:33:52;-6.20;99.90
33077;DHT22;38790;51.964;5.924;2022-12-18T06:36:18;-6.10;99.90
33077;DHT22;38790;51.964;5.924;2022-12-18T06:38:45;-6.20;99.90
33077;DHT22;38790;51.964;5.924;2022-12-18T06:41:17;-6.20;99.90
33077;DHT22;38790;51.964;5.924;2022-12-18T06:43:44;-6.30;99.90
33077;DHT22;38790;51.964;5.924;2022-12-18T06:46:11;-6.30;99.90
33077;DHT22;38790;51.964;5.924;2022-12-18T06:48:37;-6.30;99.90
33077;DHT22;38790;51.964;5.924;2022-12-18T06:51:04;-6.20;99.90
33077;DHT22;38790;51.964;5.924;2022-12-18T06:53:31;-6.10;99.90
33077;DHT22;38790;51.964;5.924;2022-12-18T06:56:06;-6.00;99.90
33077;DHT22;38790;51.964;5.924;2022-12-18T06:58:32;-6.00;99.90
33077;DHT22;38790;51.964;5.924;2022-12-18T07:01:04;-6.00;99.90
33077;DHT22;38790;51.964;5.924;2022-12-18T07:03:31;-6.00;99.90
33077;DHT22;38790;51.964;5.924;2022-12-18T07:05:57;-5.90;99.90
33077;DHT22;38790;51.964;5.924;2022-12-18T07:08:23;-5.90;99.90
33077;DHT22;38790;51.964;5.924;2022-12-18T07:10:49;-5.90;99.90
33077;DHT22;38790;51.964;5.924;2022-12-18T07:13:16;-5.80;99.90
33077;DHT22;38790;51.964;5.924;2022-12-18T07:15:43;-5.80;99.90
33077;DHT22;38790;51.964;5.924;2022-12-18T07:18:09;-5.80;99.90
33077;DHT22;38790;51.964;5.924;2022-12-18T07:20:36;-5.80;99.90
33077;DHT22;38790;51.964;5.924;2022-12-18T07:23:03;-5.80;99.90
33077;DHT22;38790;51.964;5.924;2022-12-18T07:25:29;-5.80;99.90
33077;DHT22;38790;51.964;5.924;2022-12-18T07:27:55;-5.80;99.90
33077;DHT22;38790;51.964;5.924;2022-12-18T07:30:22;-5.80;99.90
33077;DHT22;38790;51.964;5.924;2022-12-18T07:32:48;-5.80;99.90
33077;DHT22;38790;51.964;5.924;2022-12-18T07:35:14;-5.70;99.90
33077;DHT22;38790;51.964;5.924;2022-12-18T07:37:40;-5.70;99.90
33077;DHT22;38790;51.964;5.924;2022-12-18T07:40:07;-5.70;99.90
33077;DHT22;38790;51.964;5.924;2022-12-18T07:42:33;-5.70;99.90
33077;DHT22;38790;51.964;5.924;2022-12-18T07:45:01;-5.60;99.90
33077;DHT22;38790;51.964;5.924;2022-12-18T07:47:33;-5.60;99.90
33077;DHT22;38790;51.964;5.924;2022-12-18T07:50:00;-5.60;99.90
33077;DHT22;38790;51.964;5.924;2022-12-18T07:52:26;-5.60;99.90
33077;DHT22;38790;51.964;5.924;2022-12-18T07:54:52;-5.50;99.90
33077;DHT22;38790;51.964;5.924;2022-12-18T07:57:18;-5.50;99.90
33077;DHT22;38790;51.964;5.924;2022-12-18T07:59:44;-5.40;99.90
33077;DHT22;38790;51.964;5.924;2022-12-18T08:02:10;-5.30;99.90
33077;DHT22;38790;51.964;5.924;2022-12-18T08:04:36;-5.20;99.90
33077;DHT22;38790;51.964;5.924;2022-12-18T08:07:03;-5.20;99.90
33077;DHT22;38790;51.964;5.924;2022-12-18T08:09:29;-5.10;99.90
33077;DHT22;38790;51.964;5.924;2022-12-18T08:11:55;-5.00;99.90
33077;DHT22;38790;51.964;5.924;2022-12-18T08:14:21;-5.00;99.90
33077;DHT22;38790;51.964;5.924;2022-12-18T08:16:47;-5.00;99.90
33077;DHT22;38790;51.964;5.924;2022-12-18T08:19:13;-4.90;99.90
33077;DHT22;38790;51.964;5.924;2022-12-18T08:21:40;-4.90;99.90
33077;DHT22;38790;51.964;5.924;2022-12-18T08:24:06;-4.70;99.90
33077;DHT22;38790;51.964;5.924;2022-12-18T08:26:32;-4.70;99.90
33077;DHT22;38790;51.964;5.924;2022-12-18T08:28:59;-4.50;99.90
33077;DHT22;38790;51.964;5.924;2022-12-18T08:31:27;-4.40;99.90
33077;DHT22;38790;51.964;5.924;2022-12-18T08:33:54;-4.30;99.90
33077;DHT22;38790;51.964;5.924;2022-12-18T08:36:22;-4.30;99.90
33077;DHT22;38790;51.964;5.924;2022-12-18T08:38:49;-4.20;99.90
33077;DHT22;38790;51.964;5.924;2022-12-18T08:41:16;-4.10;99.90
33077;DHT22;38790;51.964;5.924;2022-12-18T08:43:43;-4.10;99.90
33077;DHT22;38790;51.964;5.924;2022-12-18T08:46:35;-4.00;99.90
33077;DHT22;38790;51.964;5.924;2022-12-18T08:49:02;-3.90;99.90
33077;DHT22;38790;51.964;5.924;2022-12-18T08:51:32;-3.90;99.90
33077;DHT22;38790;51.964;5.924;2022-12-18T08:53:58;-3.80;99.90
33077;DHT22;38790;51.964;5.924;2022-12-18T08:56:24;-3.80;99.90
33077;DHT22;38790;51.964;5.924;2022-12-18T08:58:54;-3.80;99.90
33077;DHT22;38790;51.964;5.924;2022-12-18T09:01:21;-3.70;99.90
33077;DHT22;38790;51.964;5.924;2022-12-18T09:03:48;-3.70;99.90
33077;DHT22;38790;51.964;5.924;2022-12-18T09:06:20;-3.70;99.90
33077;DHT22;38790;51.964;5.924;2022-12-18T09:08:47;-3.50;99.90
33077;DHT22;38790;51.964;5.924;2022-12-18T09:11:22;-3.50;99.90
33077;DHT22;38790;51.964;5.924;2022-12-18T09:13:49;-3.40;99.90
33077;DHT22;38790;51.964;5.924;2022-12-18T09:16:16;-3.20;99.90
33077;DHT22;38790;51.964;5.924;2022-12-18T09:18:42;-3.10;99.90
33077;DHT22;38790;51.964;5.924;2022-12-18T09:21:19;-3.00;99.90
33077;DHT22;38790;51.964;5.924;2022-12-18T09:23:50;-2.80;99.90
33077;DHT22;38790;51.964;5.924;2022-12-18T09:26:17;-2.70;99.90
33077;DHT22;38790;51.964;5.924;2022-12-18T09:28:43;-2.60;99.90
33077;DHT22;38790;51.964;5.924;2022-12-18T09:31:11;-2.50;99.90
33077;DHT22;38790;51.964;5.924;2022-12-18T09:33:38;-2.50;99.90
33077;DHT22;38790;51.964;5.924;2022-12-18T09:36:07;-2.40;99.90
33077;DHT22;38790;51.964;5.924;2022-12-18T09:38:34;-2.40;99.90
33077;DHT22;38790;51.964;5.924;2022-12-18T09:43:52;-2.20;99.90
33077;DHT22;38790;51.964;5.924;2022-12-18T09:46:28;-2.10;99.90
33077;DHT22;38790;51.964;5.924;2022-12-18T09:49:02;-2.10;99.90
33077;DHT22;38790;51.964;5.924;2022-12-18T09:51:37;-2.00;99.90
33077;DHT22;38790;51.964;5.924;2022-12-18T09:54:07;-2.00;99.90
33077;DHT22;38790;51.964;5.924;2022-12-18T09:56:41;-1.90;99.90
33077;DHT22;38790;51.964;5.924;2022-12-18T09:59:25;-1.90;99.90
33077;DHT22;38790;51.964;5.924;2022-12-18T10:01:53;-1.90;99.90
33077;DHT22;38790;51.964;5.924;2022-12-18T10:04:19;-1.90;99.90
33077;DHT22;38790;51.964;5.924;2022-12-18T10:07:02;-1.90;99.90
33077;DHT22;38790;51.964;5.924;2022-12-18T10:09:57;-1.90;99.90
33077;DHT22;38790;51.964;5.924;2022-12-18T10:12:35;-1.80;99.90
33077;DHT22;38790;51.964;5.924;2022-12-18T10:15:17;-1.80;99.90
33077;DHT22;38790;51.964;5.924;2022-12-18T10:17:53;-1.80;99.90
33077;DHT22;38790;51.964;5.924;2022-12-18T10:20:46;-1.80;99.90
33077;DHT22;38790;51.964;5.924;2022-12-18T10:26:09;-1.70;99.90
33077;DHT22;38790;51.964;5.924;2022-12-18T10:28:37;-1.70;99.90
33077;DHT22;38790;51.964;5.924;2022-12-18T10:31:17;-1.60;99.90
33077;DHT22;38790;51.964;5.924;2022-12-18T10:33:44;-1.60;99.90
33077;DHT22;38790;51.964;5.924;2022-12-18T10:36:10;-1.50;99.90
33077;DHT22;38790;51.964;5.924;2022-12-18T10:38:37;-1.50;99.90
33077;DHT22;38790;51.964;5.924;2022-12-18T10:41:06;-1.30;99.90
33077;DHT22;38790;51.964;5.924;2022-12-18T10:43:38;-1.30;99.90
33077;DHT22;38790;51.964;5.924;2022-12-18T10:48:55;-1.30;99.90
33077;DHT22;38790;51.964;5.924;2022-12-18T10:51:26;-1.30;99.90
33077;DHT22;38790;51.964;5.924;2022-12-18T10:53:57;-1.30;99.90
33077;DHT22;38790;51.964;5.924;2022-12-18T10:56:29;-1.20;99.90
33077;DHT22;38790;51.964;5.924;2022-12-18T10:59:07;-1.20;99.90
33077;DHT22;38790;51.964;5.924;2022-12-18T11:01:54;-1.10;99.90
33077;DHT22;38790;51.964;5.924;2022-12-18T11:04:23;-1.10;99.90
33077;DHT22;38790;51.964;5.924;2022-12-18T11:09:33;-1.00;99.90
33077;DHT22;38790;51.964;5.924;2022-12-18T11:12:15;-1.00;99.90
33077;DHT22;38790;51.964;5.924;2022-12-18T11:14:47;-1.00;99.90
33077;DHT22;38790;51.964;5.924;2022-12-18T11:17:22;-1.00;99.90
33077;DHT22;38790;51.964;5.924;2022-12-18T11:19:54;-0.90;99.90
33077;DHT22;38790;51.964;5.924;2022-12-18T11:22:29;-0.90;99.90
33077;DHT22;38790;51.964;5.924;2022-12-18T11:24:57;-0.90;99.90
33077;DHT22;38790;51.964;5.924;2022-12-18T11:27:25;-0.90;99.90
33077;DHT22;38790;51.964;5.924;2022-12-18T11:29:51;-0.80;99.90
33077;DHT22;38790;51.964;5.924;2022-12-18T11:32:29;-0.80;99.90
33077;DHT22;38790;51.964;5.924;2022-12-18T11:35:19;-0.60;99.90
33077;DHT22;38790;51.964;5.924;2022-12-18T11:37:53;-0.60;99.90
33077;DHT22;38790;51.964;5.924;2022-12-18T11:40:27;-0.60;99.90
33077;DHT22;38790;51.964;5.924;2022-12-18T11:43:10;-0.60;99.90
33077;DHT22;38790;51.964;5.924;2022-12-18T11:46:17;-0.60;99.90
33077;DHT22;38790;51.964;5.924;2022-12-18T11:49:20;-0.60;99.90
33077;DHT22;38790;51.964;5.924;2022-12-18T11:51:55;-0.60;99.90
33077;DHT22;38790;51.964;5.924;2022-12-18T11:54:24;-0.60;99.90
33077;DHT22;38790;51.964;5.924;2022-12-18T12:00:26;-0.50;99.90
33077;DHT22;38790;51.964;5.924;2022-12-18T12:16:57;-0.40;99.90
33077;DHT22;38790;51.964;5.924;2022-12-18T12:19:57;-0.30;99.90
33077;DHT22;38790;51.964;5.924;2022-12-18T12:25:19;-0.30;99.90
33077;DHT22;38790;51.964;5.924;2022-12-18T12:33:42;-0.30;99.90
33077;DHT22;38790;51.964;5.924;2022-12-18T12:38:47;-0.30;99.90
33077;DHT22;38790;51.964;5.924;2022-12-18T12:41:20;-0.20;99.90
33077;DHT22;38790;51.964;5.924;2022-12-18T12:44:09;-0.30;99.90
33077;DHT22;38790;51.964;5.924;2022-12-18T12:46:41;-0.30;99.90
33077;DHT22;38790;51.964;5.924;2022-12-18T12:49:18;-0.20;99.90
33077;DHT22;38790;51.964;5.924;2022-12-18T12:51:56;-0.20;99.90
33077;DHT22;38790;51.964;5.924;2022-12-18T12:54:26;-0.20;99.90
33077;DHT22;38790;51.964;5.924;2022-12-18T12:56:55;-0.20;99.90
33077;DHT22;38790;51.964;5.924;2022-12-18T13:02:22;-0.20;99.90
33077;DHT22;38790;51.964;5.924;2022-12-18T13:05:04;-0.20;99.90
33077;DHT22;38790;51.964;5.924;2022-12-18T13:07:41;-0.20;99.90
33077;DHT22;38790;51.964;5.924;2022-12-18T13:18:21;-0.10;99.90
33077;DHT22;38790;51.964;5.924;2022-12-18T13:28:56;-0.10;99.90
33077;DHT22;38790;51.964;5.924;2022-12-18T13:34:24;-0.10;99.90
33077;DHT22;38790;51.964;5.924;2022-12-18T13:36:51;-0.20;99.90
33077;DHT22;38790;51.964;5.924;2022-12-18T13:41:45;-0.30;99.90
33077;DHT22;38790;51.964;5.924;2022-12-18T13:44:32;-0.20;99.90
33077;DHT22;38790;51.964;5.924;2022-12-18T13:47:00;-0.20;99.90
33077;DHT22;38790;51.964;5.924;2022-12-18T13:49:40;-0.20;99.90
33077;DHT22;38790;51.964;5.924;2022-12-18T13:52:34;-0.30;99.90
33077;DHT22;38790;51.964;5.924;2022-12-18T13:55:05;-0.20;99.90
33077;DHT22;38790;51.964;5.924;2022-12-18T13:57:38;-0.10;99.90
33077;DHT22;38790;51.964;5.924;2022-12-18T14:02:48;-0.10;99.90
33077;DHT22;38790;51.964;5.924;2022-12-18T14:05:27;-0.10;99.90
33077;DHT22;38790;51.964;5.924;2022-12-18T14:07:54;-0.10;99.90
33077;DHT22;38790;51.964;5.924;2022-12-18T14:10:22;-0.10;99.90
33077;DHT22;38790;51.964;5.924;2022-12-18T14:12:49;-0.20;99.90
33077;DHT22;38790;51.964;5.924;2022-12-18T14:17:59;-0.10;99.90
33077;DHT22;38790;51.964;5.924;2022-12-18T14:20:26;-0.10;99.90
33077;DHT22;38790;51.964;5.924;2022-12-18T14:22:53;-0.20;99.90
33077;DHT22;38790;51.964;5.924;2022-12-18T14:25:25;-0.10;99.90
33077;DHT22;38790;51.964;5.924;2022-12-18T14:30:40;-0.20;99.90
33077;DHT22;38790;51.964;5.924;2022-12-18T14:35:42;-0.10;99.90
33077;DHT22;38790;51.964;5.924;2022-12-18T14:38:24;-0.10;99.90
33077;DHT22;38790;51.964;5.924;2022-12-18T14:43:53;-0.30;99.90
33077;DHT22;38790;51.964;5.924;2022-12-18T14:49:47;-0.10;99.90
33077;DHT22;38790;51.964;5.924;2022-12-18T14:51:53;-0.10;99.90
33077;DHT22;38790;51.964;5.924;2022-12-18T14:54:21;-0.10;99.90
33077;DHT22;38790;51.964;5.924;2022-12-18T14:57:35;-0.20;99.90
33077;DHT22;38790;51.964;5.924;2022-12-18T14:59:36;-0.10;99.90
33077;DHT22;38790;51.964;5.924;2022-12-18T15:02:22;-0.20;99.90
33077;DHT22;38790;51.964;5.924;2022-12-18T15:05:24;-0.30;99.90
33077;DHT22;38790;51.964;5.924;2022-12-18T15:07:49;-0.20;99.90
33077;DHT22;38790;51.964;5.924;2022-12-18T15:10:20;-0.20;99.90
33077;DHT22;38790;51.964;5.924;2022-12-18T15:12:50;-0.20;99.90
33077;DHT22;38790;51.964;5.924;2022-12-18T15:20:48;-0.30;99.90
33077;DHT22;38790;51.964;5.924;2022-12-18T15:23:21;-0.40;99.90
33077;DHT22;38790;51.964;5.924;2022-12-18T15:26:05;-0.40;99.90
33077;DHT22;38790;51.964;5.924;2022-12-18T15:28:58;-0.30;99.90
33077;DHT22;38790;51.964;5.924;2022-12-18T15:31:31;-0.30;99.90
33077;DHT22;38790;51.964;5.924;2022-12-18T15:36:33;-0.40;99.90
33077;DHT22;38790;51.964;5.924;2022-12-18T15:39:03;-0.50;99.90
33077;DHT22;38790;51.964;5.924;2022-12-18T15:41:34;-0.50;99.90
33077;DHT22;38790;51.964;5.924;2022-12-18T15:44:00;-0.40;99.90
33077;DHT22;38790;51.964;5.924;2022-12-18T15:46:27;-0.40;99.90
33077;DHT22;38790;51.964;5.924;2022-12-18T15:48:56;-0.30;99.90
33077;DHT22;38790;51.964;5.924;2022-12-18T15:51:34;-0.40;99.90
33077;DHT22;38790;51.964;5.924;2022-12-18T15:57:13;-0.50;99.90
33077;DHT22;38790;51.964;5.924;2022-12-18T15:59:59;-0.60;99.90
33077;DHT22;38790;51.964;5.924;2022-12-18T16:02:28;-0.50;99.90
33077;DHT22;38790;51.964;5.924;2022-12-18T16:04:58;-0.50;99.90
33077;DHT22;38790;51.964;5.924;2022-12-18T16:07:45;-0.50;99.90
33077;DHT22;38790;51.964;5.924;2022-12-18T16:10:11;-0.60;99.90
33077;DHT22;38790;51.964;5.924;2022-12-18T16:12:38;-0.60;99.90
33077;DHT22;38790;51.964;5.924;2022-12-18T16:15:05;-0.60;99.90
33077;DHT22;38790;51.964;5.924;2022-12-18T16:17:34;-0.60;99.90
33077;DHT22;38790;51.964;5.924;2022-12-18T16:20:03;-0.60;99.90
33077;DHT22;38790;51.964;5.924;2022-12-18T16:22:30;-0.60;99.90
33077;DHT22;38790;51.964;5.924;2022-12-18T16:24:57;-0.60;99.90
33077;DHT22;38790;51.964;5.924;2022-12-18T16:27:24;-0.50;99.90
33077;DHT22;38790;51.964;5.924;2022-12-18T16:29:50;-0.50;99.90
33077;DHT22;38790;51.964;5.924;2022-12-18T16:32:21;-0.50;99.90
33077;DHT22;38790;51.964;5.924;2022-12-18T16:34:48;-0.50;99.90
33077;DHT22;38790;51.964;5.924;2022-12-18T16:37:15;-0.50;99.90
33077;DHT22;38790;51.964;5.924;2022-12-18T16:39:42;-0.50;99.90
33077;DHT22;38790;51.964;5.924;2022-12-18T16:42:19;-0.60;99.90
33077;DHT22;38790;51.964;5.924;2022-12-18T16:44:46;-0.60;99.90
33077;DHT22;38790;51.964;5.924;2022-12-18T16:47:19;-0.60;99.90
33077;DHT22;38790;51.964;5.924;2022-12-18T16:49:51;-0.60;99.90
33077;DHT22;38790;51.964;5.924;2022-12-18T16:52:18;-0.60;99.90
33077;DHT22;38790;51.964;5.924;2022-12-18T16:54:45;-0.60;99.90
33077;DHT22;38790;51.964;5.924;2022-12-18T16:57:16;-0.60;99.90
33077;DHT22;38790;51.964;5.924;2022-12-18T16:59:43;-0.60;99.90
33077;DHT22;38790;51.964;5.924;2022-12-18T17:02:27;-0.60;99.90
33077;DHT22;38790;51.964;5.924;2022-12-18T17:04:55;-0.60;99.90
33077;DHT22;38790;51.964;5.924;2022-12-18T17:07:22;-0.60;99.90
33077;DHT22;38790;51.964;5.924;2022-12-18T17:09:48;-0.70;99.90
33077;DHT22;38790;51.964;5.924;2022-12-18T17:12:16;-0.70;99.90
33077;DHT22;38790;51.964;5.924;2022-12-18T17:14:42;-0.70;99.90
33077;DHT22;38790;51.964;5.924;2022-12-18T17:17:08;-0.70;99.90
33077;DHT22;38790;51.964;5.924;2022-12-18T17:19:35;-0.70;99.90
33077;DHT22;38790;51.964;5.924;2022-12-18T17:22:03;-0.60;99.90
33077;DHT22;38790;51.964;5.924;2022-12-18T17:24:29;-0.70;99.90
33077;DHT22;38790;51.964;5.924;2022-12-18T17:26:56;-0.60;99.90
33077;DHT22;38790;51.964;5.924;2022-12-18T17:29:22;-0.60;99.90
33077;DHT22;38790;51.964;5.924;2022-12-18T17:31:49;-0.70;99.90
33077;DHT22;38790;51.964;5.924;2022-12-18T17:34:15;-0.70;99.90
33077;DHT22;38790;51.964;5.924;2022-12-18T17:36:41;-0.70;99.90
33077;DHT22;38790;51.964;5.924;2022-12-18T17:39:07;-0.70;99.90
33077;DHT22;38790;51.964;5.924;2022-12-18T17:41:33;-0.70;99.90
33077;DHT22;38790;51.964;5.924;2022-12-18T17:44:02;-0.70;99.90
33077;DHT22;38790;51.964;5.924;2022-12-18T17:46:30;-0.70;99.90